Time;durP1;ratioP1;P1;durP2;ratioP2;P2;SDS_P1;SDS_P2;PMS_P1;PMS_P2;Temp;Humidity;BMP_temperature;BMP_pressure;BME280_temperature;BME280_humidity;BME280_pressure;Samples;Min_cycle;Max_cycle;Signal;HPM_P1;HPM_P2
2021/11/08 00:00:32;;;;;;;;;;;11.70;58.90;;;;;;6276553;22;19914;-67
2021/11/08 00:03:00;;;;;;;;;;;11.70;59.00;;;;;;6276333;22;19910;-67
2021/11/08 00:05:26;;;;;;;;;;;11.70;59.00;;;;;;6276541;22;20263;-67
2021/11/08 00:07:58;;;;;;;;;;;11.70;59.00;;;;;;6276500;22;19900;-67
2021/11/08 00:10:29;;;;;;;;;;;11.70;59.00;;;;;;6274979;22;19899;-67
2021/11/08 00:12:57;;;;;;;;;;;11.70;59.00;;;;;;6274627;22;19952;-67
2021/11/08 00:15:27;;;;;;;;;;;11.80;59.00;;;;;;6274933;22;19922;-68
2021/11/08 00:20:50;;;;;;;;;;;11.80;59.00;;;;;;6277750;22;20329;-68
2021/11/08 00:23:16;;;;;;;;;;;11.80;59.00;;;;;;6276376;22;19903;-68
2021/11/08 00:25:43;;;;;;;;;;;11.80;59.00;;;;;;6274838;22;19899;-68
2021/11/08 00:28:09;;;;;;;;;;;11.80;59.00;;;;;;6276438;22;19974;-68
2021/11/08 00:30:35;;;;;;;;;;;11.80;59.00;;;;;;6276390;22;19952;-67
2021/11/08 00:33:02;;;;;;;;;;;11.90;59.10;;;;;;6276301;22;19922;-68
2021/11/08 00:35:27;;;;;;;;;;;11.90;59.10;;;;;;6276329;22;19906;-68
2021/11/08 00:37:53;;;;;;;;;;;11.90;59.00;;;;;;6276434;22;19895;-68
2021/11/08 00:40:19;;;;;;;;;;;11.90;59.10;;;;;;6276207;22;19899;-68
2021/11/08 00:42:45;;;;;;;;;;;11.90;59.10;;;;;;6276263;22;19906;-68
2021/11/08 00:45:11;;;;;;;;;;;11.90;59.10;;;;;;6275804;22;19900;-68
2021/11/08 00:47:37;;;;;;;;;;;11.90;59.10;;;;;;6276374;22;19906;-68
2021/11/08 00:50:04;;;;;;;;;;;11.90;59.10;;;;;;6276340;22;19905;-68
2021/11/08 00:52:30;;;;;;;;;;;11.90;59.00;;;;;;6276295;22;20293;-68
2021/11/08 00:54:58;;;;;;;;;;;11.90;59.00;;;;;;6276260;22;19926;-68
2021/11/08 00:57:31;;;;;;;;;;;11.90;59.10;;;;;;6276183;22;19905;-68
2021/11/08 00:59:58;;;;;;;;;;;11.90;59.10;;;;;;6276333;22;19925;-68
2021/11/08 01:02:26;;;;;;;;;;;11.90;59.10;;;;;;6276174;22;19939;-68
2021/11/08 01:04:52;;;;;;;;;;;11.90;59.10;;;;;;6276190;22;19903;-68
2021/11/08 01:07:18;;;;;;;;;;;11.90;59.10;;;;;;6276258;22;20384;-68
2021/11/08 01:09:45;;;;;;;;;;;11.90;59.10;;;;;;6276234;22;19899;-68
2021/11/08 01:12:11;;;;;;;;;;;11.90;59.10;;;;;;6276280;22;19961;-68
2021/11/08 01:14:36;;;;;;;;;;;11.90;59.20;;;;;;6276016;22;20328;-68
2021/11/08 01:17:02;;;;;;;;;;;11.90;59.20;;;;;;6276209;22;19899;-68
2021/11/08 01:19:28;;;;;;;;;;;11.90;59.30;;;;;;6276159;22;19899;-68
2021/11/08 01:22:03;;;;;;;;;;;11.90;59.30;;;;;;6276142;22;19899;-68
2021/11/08 01:24:29;;;;;;;;;;;11.90;59.40;;;;;;6275970;22;19903;-67
2021/11/08 01:26:54;;;;;;;;;;;11.90;59.40;;;;;;6275915;22;19905;-68
2021/11/08 01:29:20;;;;;;;;;;;11.90;59.40;;;;;;6276116;22;19899;-68
2021/11/08 01:31:46;;;;;;;;;;;11.90;59.40;;;;;;6276154;22;19900;-68
2021/11/08 01:34:12;;;;;;;;;;;11.90;59.40;;;;;;6276222;22;19974;-68
2021/11/08 01:36:40;;;;;;;;;;;12.00;59.50;;;;;;6276190;22;19978;-68
2021/11/08 01:39:14;;;;;;;;;;;12.00;59.50;;;;;;6276059;22;19981;-68
2021/11/08 01:41:40;;;;;;;;;;;12.00;59.60;;;;;;6275659;22;19975;-69
2021/11/08 01:44:05;;;;;;;;;;;12.00;59.60;;;;;;6276033;22;20378;-69
2021/11/08 01:46:31;;;;;;;;;;;12.00;59.60;;;;;;6276081;22;19974;-69
2021/11/08 01:48:57;;;;;;;;;;;12.00;59.60;;;;;;6276078;22;19945;-69
2021/11/08 01:51:22;;;;;;;;;;;12.00;59.60;;;;;;6275989;22;19948;-69
2021/11/08 01:53:48;;;;;;;;;;;12.00;59.70;;;;;;6276014;22;19899;-67
2021/11/08 01:56:14;;;;;;;;;;;12.00;59.70;;;;;;6276209;22;19902;-68
2021/11/08 01:58:40;;;;;;;;;;;12.00;59.80;;;;;;6277703;22;19906;-68
2021/11/08 02:01:06;;;;;;;;;;;12.00;59.80;;;;;;6277845;22;19991;-68
2021/11/08 02:03:34;;;;;;;;;;;12.00;59.80;;;;;;6277396;22;19903;-68
2021/11/08 02:06:00;;;;;;;;;;;12.00;59.90;;;;;;6277608;22;19900;-67
2021/11/08 02:08:27;;;;;;;;;;;12.00;59.90;;;;;;6277508;22;20342;-67
2021/11/08 02:10:54;;;;;;;;;;;11.90;59.90;;;;;;6277666;22;20380;-67
2021/11/08 02:13:21;;;;;;;;;;;12.00;60.00;;;;;;6277399;22;19931;-67
2021/11/08 02:15:47;;;;;;;;;;;11.90;59.90;;;;;;6277646;22;20277;-67
2021/11/08 02:18:14;;;;;;;;;;;11.90;59.90;;;;;;6277345;22;19950;-67
2021/11/08 02:20:46;;;;;;;;;;;12.00;60.00;;;;;;6277558;22;20234;-68
2021/11/08 02:23:11;;;;;;;;;;;11.90;59.90;;;;;;6277336;22;20311;-68
2021/11/08 02:25:38;;;;;;;;;;;11.90;59.90;;;;;;6277350;22;19900;-68
2021/11/08 02:28:05;;;;;;;;;;;12.00;60.00;;;;;;6277360;22;19895;-68
2021/11/08 02:30:33;;;;;;;;;;;11.90;59.90;;;;;;6277428;22;20231;-67
2021/11/08 02:33:00;;;;;;;;;;;11.90;60.00;;;;;;6277357;22;19903;-68
2021/11/08 02:35:26;;;;;;;;;;;11.90;60.00;;;;;;6275828;22;19903;-68
2021/11/08 02:37:52;;;;;;;;;;;11.90;60.00;;;;;;6276024;22;19895;-68
2021/11/08 02:40:21;;;;;;;;;;;11.90;60.00;;;;;;6276276;22;20376;-67
2021/11/08 02:42:49;;;;;;;;;;;11.90;60.00;;;;;;6276164;22;19973;-68
2021/11/08 02:45:19;;;;;;;;;;;11.90;60.00;;;;;;6276322;22;19899;-67
2021/11/08 02:47:45;;;;;;;;;;;11.90;60.10;;;;;;6276339;22;19899;-68
2021/11/08 02:50:12;;;;;;;;;;;11.90;60.20;;;;;;6276524;22;20384;-68
2021/11/08 02:52:38;;;;;;;;;;;11.90;60.30;;;;;;6276445;22;19899;-68
2021/11/08 02:55:04;;;;;;;;;;;11.80;60.30;;;;;;6276062;22;19900;-68
2021/11/08 02:57:30;;;;;;;;;;;11.90;60.30;;;;;;6276279;22;19921;-68
2021/11/08 02:59:58;;;;;;;;;;;11.90;60.40;;;;;;6274658;22;19899;-68
2021/11/08 03:02:24;;;;;;;;;;;11.80;60.30;;;;;;6274636;22;20216;-67
2021/11/08 03:04:53;;;;;;;;;;;11.80;60.30;;;;;;6276121;22;19952;-69
2021/11/08 03:07:20;;;;;;;;;;;11.80;60.40;;;;;;6274615;22;19906;-69
2021/11/08 03:09:51;;;;;;;;;;;11.80;60.40;;;;;;6275671;22;19915;-68
2021/11/08 03:12:24;;;;;;;;;;;11.80;60.50;;;;;;6276238;22;19923;-68
2021/11/08 03:17:30;;;;;;;;;;;11.80;60.60;;;;;;6276884;22;19907;-68
2021/11/08 03:19:56;;;;;;;;;;;11.80;60.60;;;;;;6276105;22;19970;-68
2021/11/08 03:22:26;;;;;;;;;;;11.90;60.70;;;;;;6275942;22;19903;-69
2021/11/08 03:24:56;;;;;;;;;;;11.90;60.70;;;;;;6276054;22;19907;-69
2021/11/08 03:27:32;;;;;;;;;;;11.90;60.70;;;;;;6276009;22;20247;-68
2021/11/08 03:29:59;;;;;;;;;;;12.00;60.80;;;;;;6274419;22;19899;-68
2021/11/08 03:32:25;;;;;;;;;;;11.90;60.60;;;;;;6275864;22;19988;-68
2021/11/08 03:35:09;;;;;;;;;;;11.90;60.50;;;;;;6275941;22;19899;-69
2021/11/08 03:37:38;;;;;;;;;;;11.90;60.50;;;;;;6275902;22;19906;-69
2021/11/08 03:40:05;;;;;;;;;;;11.90;60.50;;;;;;6275890;22;19970;-68
2021/11/08 03:42:30;;;;;;;;;;;12.00;60.50;;;;;;6275963;22;19903;-68
2021/11/08 03:44:56;;;;;;;;;;;11.90;60.50;;;;;;6275821;22;19910;-68
2021/11/08 03:47:22;;;;;;;;;;;11.90;60.50;;;;;;6275767;22;19899;-68
2021/11/08 03:49:47;;;;;;;;;;;11.90;60.50;;;;;;6275906;22;19907;-69
2021/11/08 03:52:13;;;;;;;;;;;12.00;60.60;;;;;;6275702;22;19899;-69
2021/11/08 03:54:39;;;;;;;;;;;12.00;60.70;;;;;;6275771;22;20313;-69
2021/11/08 03:57:05;;;;;;;;;;;12.00;60.70;;;;;;6273863;22;19977;-69
2021/11/08 03:59:31;;;;;;;;;;;12.00;60.70;;;;;;6275708;22;20265;-69
2021/11/08 04:01:57;;;;;;;;;;;12.00;60.70;;;;;;6275923;22;19926;-68
2021/11/08 04:04:23;;;;;;;;;;;12.00;60.80;;;;;;6275500;22;20254;-68
2021/11/08 04:06:48;;;;;;;;;;;12.00;60.80;;;;;;6275740;22;19929;-69
2021/11/08 04:09:16;;;;;;;;;;;12.00;60.80;;;;;;6275700;22;19914;-69
2021/11/08 04:11:43;;;;;;;;;;;12.00;60.90;;;;;;6275533;22;19911;-69
2021/11/08 04:14:09;;;;;;;;;;;12.00;60.90;;;;;;6275104;22;19911;-69
2021/11/08 04:16:35;;;;;;;;;;;12.00;60.90;;;;;;6274022;22;20297;-69
2021/11/08 04:19:02;;;;;;;;;;;12.00;60.80;;;;;;6275549;22;19966;-69
2021/11/08 04:21:29;;;;;;;;;;;12.00;60.80;;;;;;6275475;22;19919;-69
2021/11/08 04:23:54;;;;;;;;;;;12.00;60.70;;;;;;6275387;22;19903;-69
2021/11/08 04:26:23;;;;;;;;;;;12.00;60.70;;;;;;6275393;22;20278;-70
2021/11/08 04:28:59;;;;;;;;;;;11.90;60.60;;;;;;6275415;22;20368;-69
2021/11/08 04:31:25;;;;;;;;;;;12.00;60.70;;;;;;6273987;22;19955;-69
2021/11/08 04:33:57;;;;;;;;;;;11.90;60.70;;;;;;6275397;22;19899;-69
2021/11/08 04:39:08;;;;;;;;;;;11.90;60.80;;;;;;6276133;22;19968;-69
2021/11/08 04:41:51;;;;;;;;;;;11.90;60.90;;;;;;6275466;22;19906;-69
2021/11/08 04:44:47;;;;;;;;;;;11.80;61.00;;;;;;6275291;22;19910;-69
2021/11/08 04:52:26;;;;;;;;;;;11.80;61.80;;;;;;6276436;22;19903;-69
2021/11/08 05:31:44;;;;;;;;;;;11.50;62.00;;;;;;6275771;22;19974;-69
2021/11/08 05:34:10;;;;;;;;;;;11.50;62.10;;;;;;6276937;22;19933;-69
2021/11/08 05:36:36;;;;;;;;;;;11.50;62.20;;;;;;6276806;22;20445;-69
2021/11/08 05:39:03;;;;;;;;;;;11.50;62.30;;;;;;6276676;22;19949;-69
2021/11/08 05:41:29;;;;;;;;;;;11.50;62.40;;;;;;6276905;22;20318;-69
2021/11/08 05:43:54;;;;;;;;;;;11.40;62.30;;;;;;6276855;22;19945;-68
2021/11/08 05:46:20;;;;;;;;;;;11.40;62.40;;;;;;6276608;22;19903;-68
2021/11/08 05:48:46;;;;;;;;;;;11.40;62.30;;;;;;6276667;22;19899;-69
2021/11/08 05:51:12;;;;;;;;;;;11.40;62.30;;;;;;6276553;22;19899;-69
2021/11/08 05:53:38;;;;;;;;;;;11.30;62.30;;;;;;6274875;22;20233;-68
2021/11/08 05:56:26;;;;;;;;;;;11.30;62.30;;;;;;6276637;22;20352;-67
2021/11/08 06:50:16;;;;;;;;;;;10.60;63.80;;;;;;6276210;22;20050;-68
2021/11/08 06:52:46;;;;;;;;;;;10.60;63.80;;;;;;6275536;22;19899;-68
2021/11/08 06:55:11;;;;;;;;;;;10.60;63.90;;;;;;6248826;22;19922;-68
2021/11/08 06:57:47;;;;;;;;;;;10.60;64.00;;;;;;6275520;22;20220;-68
2021/11/08 07:00:17;;;;;;;;;;;10.60;64.10;;;;;;6275765;22;19909;-68
2021/11/08 07:02:42;;;;;;;;;;;10.60;64.10;;;;;;6275296;22;19903;-68
2021/11/08 07:05:08;;;;;;;;;;;10.70;64.20;;;;;;6275545;22;20311;-68
2021/11/08 07:07:34;;;;;;;;;;;10.70;64.90;;;;;;6248420;22;20273;-68
2021/11/08 07:10:00;;;;;;;;;;;10.70;64.00;;;;;;6275828;22;19903;-68
2021/11/08 07:12:25;;;;;;;;;;;10.70;64.00;;;;;;6275591;22;19899;-68
2021/11/08 07:14:51;;;;;;;;;;;10.80;64.10;;;;;;6275310;22;20008;-68
2021/11/08 07:17:17;;;;;;;;;;;10.80;64.00;;;;;;6273463;22;19904;-68
2021/11/08 07:19:42;;;;;;;;;;;10.80;63.90;;;;;;6273742;22;20307;-68
2021/11/08 07:22:08;;;;;;;;;;;10.80;63.90;;;;;;6275536;22;19906;-68
2021/11/08 07:24:34;;;;;;;;;;;10.80;63.80;;;;;;6275269;22;19912;-68
2021/11/08 07:26:59;;;;;;;;;;;10.90;63.80;;;;;;6275494;22;19927;-68
2021/11/08 07:29:27;;;;;;;;;;;10.90;63.80;;;;;;6275284;22;20230;-68
2021/11/08 07:31:53;;;;;;;;;;;10.90;63.80;;;;;;6275167;22;19899;-68
2021/11/08 07:34:19;;;;;;;;;;;10.90;63.80;;;;;;6275481;22;19992;-68
2021/11/08 07:36:45;;;;;;;;;;;11.00;63.90;;;;;;6275135;22;19907;-69
2021/11/08 07:39:11;;;;;;;;;;;11.00;63.80;;;;;;6275464;22;19899;-69
2021/11/08 07:41:37;;;;;;;;;;;11.00;63.70;;;;;;6275494;22;19926;-69
2021/11/08 07:44:02;;;;;;;;;;;11.10;63.70;;;;;;6275413;22;20368;-69
2021/11/08 07:46:28;;;;;;;;;;;11.10;63.70;;;;;;6275673;22;20207;-69
2021/11/08 07:48:54;;;;;;;;;;;11.10;63.50;;;;;;6275337;22;19899;-69
2021/11/08 07:51:20;;;;;;;;;;;11.20;63.50;;;;;;6275381;22;19899;-69
2021/11/08 07:53:47;;;;;;;;;;;11.20;63.50;;;;;;6275433;22;20234;-69
2021/11/08 07:56:13;;;;;;;;;;;11.20;63.40;;;;;;6275415;22;19903;-69
2021/11/08 07:58:38;;;;;;;;;;;11.30;63.40;;;;;;6275236;22;19899;-69
2021/11/08 08:01:05;;;;;;;;;;;11.30;63.30;;;;;;6275397;22;19998;-69
2021/11/08 08:03:30;;;;;;;;;;;11.30;63.20;;;;;;6275188;22;19953;-69
2021/11/08 08:05:57;;;;;;;;;;;11.30;63.20;;;;;;6275347;22;20242;-69
2021/11/08 08:08:22;;;;;;;;;;;11.30;63.10;;;;;;6275093;22;19900;-69
2021/11/08 08:10:52;;;;;;;;;;;11.30;63.00;;;;;;6275254;22;20212;-69
2021/11/08 08:13:20;;;;;;;;;;;11.40;62.90;;;;;;6273390;22;19986;-69
2021/11/08 08:15:47;;;;;;;;;;;11.40;62.80;;;;;;6275452;22;19903;-69
2021/11/08 08:18:12;;;;;;;;;;;11.40;62.80;;;;;;6275178;22;20368;-69
2021/11/08 08:20:38;;;;;;;;;;;11.50;62.70;;;;;;6273620;22;19937;-69
2021/11/08 08:23:03;;;;;;;;;;;11.50;62.60;;;;;;6275100;22;19921;-69
2021/11/08 08:25:29;;;;;;;;;;;11.50;62.60;;;;;;6275204;22;19905;-69
2021/11/08 08:27:58;;;;;;;;;;;11.60;62.60;;;;;;6275229;22;19899;-69
2021/11/08 08:30:24;;;;;;;;;;;11.60;62.70;;;;;;6274977;22;19988;-69
2021/11/08 08:32:50;;;;;;;;;;;11.70;62.60;;;;;;6275103;22;19910;-69
2021/11/08 08:35:15;;;;;;;;;;;11.80;62.70;;;;;;6274864;22;19899;-69
2021/11/08 08:37:41;;;;;;;;;;;11.80;63.40;;;;;;6275153;22;19899;-69
2021/11/08 08:40:07;;;;;;;;;;;11.90;62.50;;;;;;6274924;22;19899;-69
2021/11/08 08:42:33;;;;;;;;;;;11.90;62.30;;;;;;6274859;22;19899;-69
2021/11/08 08:44:58;;;;;;;;;;;12.00;62.30;;;;;;6274289;22;19934;-69
2021/11/08 08:47:24;;;;;;;;;;;12.10;62.40;;;;;;6274555;22;19906;-69
2021/11/08 08:49:50;;;;;;;;;;;12.20;62.10;;;;;;6274389;22;19899;-69
2021/11/08 08:52:16;;;;;;;;;;;12.30;62.20;;;;;;6274815;22;20274;-69
2021/11/08 08:54:42;;;;;;;;;;;12.40;62.20;;;;;;6275044;22;19899;-69
2021/11/08 08:57:08;;;;;;;;;;;12.60;62.20;;;;;;6274771;22;20339;-69
2021/11/08 08:59:34;;;;;;;;;;;12.70;62.10;;;;;;6274882;22;19899;-69
2021/11/08 09:02:00;;;;;;;;;;;12.90;61.60;;;;;;6274903;22;19982;-69
2021/11/08 09:04:26;;;;;;;;;;;13.00;61.30;;;;;;6275205;22;19903;-68
2021/11/08 09:06:52;;;;;;;;;;;13.20;61.10;;;;;;6275894;22;19907;-69
2021/11/08 09:09:17;;;;;;;;;;;13.30;60.40;;;;;;6277174;22;19899;-69
2021/11/08 09:11:43;;;;;;;;;;;13.40;60.00;;;;;;6277375;22;20397;-68
2021/11/08 09:14:09;;;;;;;;;;;13.50;59.90;;;;;;6276891;22;20385;-68
2021/11/08 09:16:34;;;;;;;;;;;13.60;59.90;;;;;;6277061;22;19960;-69
2021/11/08 09:19:01;;;;;;;;;;;13.80;60.20;;;;;;6275004;22;20260;-68
2021/11/08 09:21:27;;;;;;;;;;;13.90;59.80;;;;;;6276731;22;19899;-69
2021/11/08 09:23:53;;;;;;;;;;;14.00;59.30;;;;;;6276945;22;19910;-69
2021/11/08 09:26:19;;;;;;;;;;;14.20;59.30;;;;;;6276818;22;19899;-69
2021/11/08 09:28:45;;;;;;;;;;;14.40;59.20;;;;;;6276646;22;19989;-68
2021/11/08 09:31:11;;;;;;;;;;;14.60;58.80;;;;;;6276409;22;20315;-69
2021/11/08 09:33:36;;;;;;;;;;;14.70;58.60;;;;;;6276780;22;19906;-69
2021/11/08 09:36:05;;;;;;;;;;;14.90;58.50;;;;;;6276619;22;19899;-69
2021/11/08 09:38:33;;;;;;;;;;;15.10;58.30;;;;;;6276760;22;19899;-68
2021/11/08 09:40:59;;;;;;;;;;;15.20;58.00;;;;;;6276548;22;19988;-68
2021/11/08 09:43:27;;;;;;;;;;;15.30;57.70;;;;;;6276328;22;19903;-69
2021/11/08 09:45:53;;;;;;;;;;;15.50;57.50;;;;;;6276539;22;19906;-69
2021/11/08 09:48:19;;;;;;;;;;;15.60;57.10;;;;;;6276560;22;19899;-69
2021/11/08 09:50:46;;;;;;;;;;;15.70;56.30;;;;;;6276795;22;19949;-69
2021/11/08 09:53:12;;;;;;;;;;;15.80;55.30;;;;;;6276535;22;19922;-68
2021/11/08 09:55:38;;;;;;;;;;;15.80;54.90;;;;;;6277092;22;19899;-69
2021/11/08 09:58:04;;;;;;;;;;;15.80;55.00;;;;;;6276827;22;19899;-69
2021/11/08 10:00:36;;;;;;;;;;;15.90;54.60;;;;;;6276400;22;19903;-69
2021/11/08 10:03:04;;;;;;;;;;;15.90;54.60;;;;;;6274151;22;19982;-69
2021/11/08 10:05:35;;;;;;;;;;;15.90;54.30;;;;;;6276274;22;19899;-69
2021/11/08 10:08:01;;;;;;;;;;;15.90;54.30;;;;;;6276295;22;19899;-69
2021/11/08 10:10:27;;;;;;;;;;;16.00;54.10;;;;;;6276534;22;19961;-69
2021/11/08 10:12:55;;;;;;;;;;;15.90;53.80;;;;;;6276381;22;19906;-69
2021/11/08 10:15:20;;;;;;;;;;;15.90;53.10;;;;;;6276384;22;20319;-69
2021/11/08 10:17:46;;;;;;;;;;;15.90;52.80;;;;;;6276232;22;19906;-69
2021/11/08 10:20:18;;;;;;;;;;;15.80;52.30;;;;;;6276135;22;20272;-69
2021/11/08 10:22:44;;;;;;;;;;;15.80;52.50;;;;;;6276637;22;19910;-69
2021/11/08 10:25:14;;;;;;;;;;;15.80;52.20;;;;;;6274648;22;19903;-69
2021/11/08 10:27:43;;;;;;;;;;;15.70;51.90;;;;;;6276511;22;19906;-69
2021/11/08 10:30:19;;;;;;;;;;;15.60;51.80;;;;;;6276064;22;19899;-69
2021/11/08 10:32:44;;;;;;;;;;;15.60;51.60;;;;;;6274875;22;19899;-69
2021/11/08 10:35:10;;;;;;;;;;;15.40;51.50;;;;;;6276262;22;20219;-69
2021/11/08 10:37:36;;;;;;;;;;;15.30;51.60;;;;;;6276280;22;19997;-69
2021/11/08 10:40:02;;;;;;;;;;;15.10;51.80;;;;;;6276189;22;19899;-69
2021/11/08 10:42:29;;;;;;;;;;;15.00;51.70;;;;;;6276324;22;19922;-69
2021/11/08 10:44:56;;;;;;;;;;;14.90;51.70;;;;;;6275971;22;19903;-69
2021/11/08 10:47:22;;;;;;;;;;;14.80;51.90;;;;;;6275943;22;20314;-69
2021/11/08 10:49:47;;;;;;;;;;;14.70;51.90;;;;;;6275937;22;19924;-69
2021/11/08 10:52:15;;;;;;;;;;;14.60;52.10;;;;;;6276071;22;20235;-69
2021/11/08 10:54:45;;;;;;;;;;;14.50;52.30;;;;;;6276215;22;20317;-69
2021/11/08 10:57:19;;;;;;;;;;;14.50;52.40;;;;;;6275994;22;19930;-69
2021/11/08 10:59:48;;;;;;;;;;;14.40;52.40;;;;;;6275968;22;19944;-69
2021/11/08 11:02:15;;;;;;;;;;;14.30;52.40;;;;;;6275990;22;19937;-69
2021/11/08 11:04:47;;;;;;;;;;;14.20;52.40;;;;;;6275819;22;19953;-69
2021/11/08 11:07:12;;;;;;;;;;;14.10;52.40;;;;;;6276021;22;19979;-69
2021/11/08 11:09:38;;;;;;;;;;;14.00;52.30;;;;;;6274189;22;19981;-69
2021/11/08 11:12:11;;;;;;;;;;;14.00;52.80;;;;;;6275847;22;19899;-69
2021/11/08 11:14:38;;;;;;;;;;;14.10;53.30;;;;;;6275807;22;19919;-69
2021/11/08 11:17:27;;;;;;;;;;;14.20;53.60;;;;;;6276022;22;19918;-69
2021/11/08 11:20:01;;;;;;;;;;;14.30;54.00;;;;;;6242238;23;19907;-69
2021/11/08 11:22:27;;;;;;;;;;;14.50;54.20;;;;;;6216769;23;20327;-69
2021/11/08 11:24:54;;;;;;;;;;;14.70;54.30;;;;;;6241998;23;20238;-69
2021/11/08 11:27:29;;;;;;;;;;;15.00;54.00;;;;;;6242142;23;19939;-69
2021/11/08 11:30:13;;;;;;;;;;;15.20;53.50;;;;;;6241515;23;19900;-70
2021/11/08 11:32:39;;;;;;;;;;;15.50;53.00;;;;;;6241828;23;19930;-69
2021/11/08 11:35:15;;;;;;;;;;;15.60;52.20;;;;;;6216796;23;19899;-69
2021/11/08 11:37:51;;;;;;;;;;;15.70;51.50;;;;;;6242300;23;19926;-69
2021/11/08 11:40:17;;;;;;;;;;;15.70;50.60;;;;;;6242539;23;19938;-69
2021/11/08 11:42:47;;;;;;;;;;;15.80;50.50;;;;;;6242324;23;19951;-69
2021/11/08 11:45:12;;;;;;;;;;;15.80;50.20;;;;;;6216422;23;20227;-68
2021/11/08 11:47:39;;;;;;;;;;;15.80;49.90;;;;;;6216803;23;19899;-69
2021/11/08 11:50:04;;;;;;;;;;;15.90;49.90;;;;;;6242045;23;19904;-69
2021/11/08 11:52:31;;;;;;;;;;;16.00;50.20;;;;;;6241985;23;19986;-69
2021/11/08 11:54:57;;;;;;;;;;;16.00;49.40;;;;;;6242006;23;19954;-69
2021/11/08 11:57:22;;;;;;;;;;;16.10;49.20;;;;;;6265938;22;19899;-68
2021/11/08 11:59:48;;;;;;;;;;;16.10;49.40;;;;;;6275507;22;19899;-69
2021/11/08 12:02:15;;;;;;;;;;;16.20;49.40;;;;;;6273657;22;20425;-68
2021/11/08 12:04:41;;;;;;;;;;;16.20;49.10;;;;;;6275394;22;20255;-68
2021/11/08 12:07:09;;;;;;;;;;;16.20;49.00;;;;;;6275933;22;19899;-68
2021/11/08 12:09:35;;;;;;;;;;;16.20;48.80;;;;;;6274008;22;20269;-69
2021/11/08 12:12:01;;;;;;;;;;;16.00;48.40;;;;;;6275439;22;20243;-70
2021/11/08 12:14:28;;;;;;;;;;;15.90;48.20;;;;;;6270512;22;19911;-69
2021/11/08 12:16:54;;;;;;;;;;;15.80;48.20;;;;;;6275059;22;20330;-68
2021/11/08 12:19:21;;;;;;;;;;;15.80;48.30;;;;;;6272814;22;19899;-69
2021/11/08 12:21:47;;;;;;;;;;;15.70;48.40;;;;;;6276009;22;19965;-69
2021/11/08 12:24:31;;;;;;;;;;;15.60;48.50;;;;;;6275664;22;19903;-69
2021/11/08 12:27:11;;;;;;;;;;;15.60;48.20;;;;;;6275618;22;19927;-69
2021/11/08 12:29:47;;;;;;;;;;;15.50;48.20;;;;;;6276162;22;19922;-70
2021/11/08 12:32:13;;;;;;;;;;;15.40;48.10;;;;;;6276414;22;19899;-69
2021/11/08 12:34:46;;;;;;;;;;;15.40;48.20;;;;;;6275642;22;19899;-70
2021/11/08 12:37:12;;;;;;;;;;;15.40;48.20;;;;;;6274856;22;19906;-68
2021/11/08 12:39:38;;;;;;;;;;;15.40;48.40;;;;;;6276094;22;19899;-68
2021/11/08 12:42:07;;;;;;;;;;;15.40;48.30;;;;;;6274279;22;20341;-70
2021/11/08 12:44:35;;;;;;;;;;;15.40;48.50;;;;;;6275989;22;19904;-69
2021/11/08 12:47:01;;;;;;;;;;;15.50;48.70;;;;;;6276455;22;19899;-69
2021/11/08 12:49:29;;;;;;;;;;;15.60;49.00;;;;;;6276091;22;19899;-69
2021/11/08 12:51:57;;;;;;;;;;;15.70;48.90;;;;;;6274563;22;19906;-69
2021/11/08 12:54:24;;;;;;;;;;;15.80;48.70;;;;;;6276075;22;19899;-69
2021/11/08 12:56:51;;;;;;;;;;;16.00;48.40;;;;;;6276308;22;19899;-70
2021/11/08 12:59:21;;;;;;;;;;;16.10;48.00;;;;;;6276105;22;19910;-68
2021/11/08 13:01:50;;;;;;;;;;;16.30;48.40;;;;;;6274670;22;19903;-70
2021/11/08 13:04:17;;;;;;;;;;;16.40;47.50;;;;;;6274670;22;19903;-68
2021/11/08 13:06:44;;;;;;;;;;;16.40;47.10;;;;;;6276024;22;19926;-69
2021/11/08 13:09:12;;;;;;;;;;;16.50;47.20;;;;;;6276187;22;19942;-69
2021/11/08 13:11:38;;;;;;;;;;;16.50;47.60;;;;;;6276137;22;19922;-69
2021/11/08 13:14:05;;;;;;;;;;;16.50;45.80;;;;;;6275850;22;19921;-68
2021/11/08 13:16:32;;;;;;;;;;;16.40;45.70;;;;;;6276183;22;20338;-69
2021/11/08 13:19:03;;;;;;;;;;;16.30;45.70;;;;;;6276174;22;20277;-69
2021/11/08 13:21:29;;;;;;;;;;;16.20;45.50;;;;;;6276279;22;19906;-68
2021/11/08 13:23:58;;;;;;;;;;;16.10;45.40;;;;;;6274459;22;20206;-69
2021/11/08 13:26:24;;;;;;;;;;;16.00;45.50;;;;;;6274382;22;19899;-68
2021/11/08 13:28:50;;;;;;;;;;;15.80;45.60;;;;;;6276061;22;20329;-69
2021/11/08 13:31:16;;;;;;;;;;;15.70;45.40;;;;;;6276114;22;19906;-69
2021/11/08 13:33:43;;;;;;;;;;;15.50;45.40;;;;;;6275933;22;19896;-69
2021/11/08 13:36:13;;;;;;;;;;;15.40;45.40;;;;;;6276007;22;19900;-68
2021/11/08 13:38:40;;;;;;;;;;;15.30;45.70;;;;;;6276514;22;19921;-69
2021/11/08 13:41:18;;;;;;;;;;;15.20;45.90;;;;;;6276124;22;19906;-68
2021/11/08 13:43:46;;;;;;;;;;;15.00;45.90;;;;;;6274300;22;19982;-68
2021/11/08 13:46:17;;;;;;;;;;;15.00;46.10;;;;;;6276404;22;19922;-68
2021/11/08 13:48:46;;;;;;;;;;;14.90;46.40;;;;;;6276058;22;19917;-69
2021/11/08 13:51:21;;;;;;;;;;;14.80;46.40;;;;;;6274338;22;19906;-68
2021/11/08 13:53:50;;;;;;;;;;;14.80;46.60;;;;;;6277431;22;19895;-68
2021/11/08 13:56:17;;;;;;;;;;;14.70;46.70;;;;;;6277949;22;19899;-68
2021/11/08 13:58:52;;;;;;;;;;;14.60;46.90;;;;;;6278030;22;19895;-68
2021/11/08 14:01:19;;;;;;;;;;;14.60;46.90;;;;;;6277822;22;19914;-69
2021/11/08 14:03:46;;;;;;;;;;;14.60;46.90;;;;;;6277778;22;20235;-68
2021/11/08 14:06:14;;;;;;;;;;;14.60;46.80;;;;;;6275867;22;19899;-69
2021/11/08 14:08:49;;;;;;;;;;;14.60;46.90;;;;;;6277786;22;19921;-69
2021/11/08 14:11:28;;;;;;;;;;;14.50;47.00;;;;;;6277695;22;19945;-69
2021/11/08 14:13:59;;;;;;;;;;;14.50;47.20;;;;;;6277084;22;19918;-68
2021/11/08 14:16:25;;;;;;;;;;;14.50;47.20;;;;;;6276150;22;19899;-68
2021/11/08 14:18:54;;;;;;;;;;;14.50;47.30;;;;;;6275756;22;19895;-69
2021/11/08 14:21:20;;;;;;;;;;;14.60;47.20;;;;;;6277156;22;19934;-69
2021/11/08 14:23:46;;;;;;;;;;;14.60;47.30;;;;;;6277002;22;19903;-69
2021/11/08 14:26:16;;;;;;;;;;;14.70;47.40;;;;;;6277479;22;19933;-69
2021/11/08 14:28:43;;;;;;;;;;;14.80;47.50;;;;;;6275968;22;20231;-69
2021/11/08 14:31:24;;;;;;;;;;;14.90;47.50;;;;;;6277498;22;20311;-69
2021/11/08 14:33:52;;;;;;;;;;;14.90;47.60;;;;;;6277189;22;20288;-68
2021/11/08 14:36:19;;;;;;;;;;;15.00;47.40;;;;;;6277087;22;19899;-69
2021/11/08 14:38:48;;;;;;;;;;;15.10;47.20;;;;;;6276844;22;19923;-69
2021/11/08 14:41:14;;;;;;;;;;;15.20;47.30;;;;;;6277259;22;19899;-69
2021/11/08 14:43:40;;;;;;;;;;;15.20;47.30;;;;;;6277361;22;19922;-69
2021/11/08 14:46:07;;;;;;;;;;;15.30;47.30;;;;;;6277411;22;19899;-69
2021/11/08 14:48:34;;;;;;;;;;;15.40;47.10;;;;;;6277282;22;19931;-69
2021/11/08 14:51:03;;;;;;;;;;;15.40;46.70;;;;;;6277265;22;19922;-69
2021/11/08 14:53:29;;;;;;;;;;;15.40;47.20;;;;;;6275717;22;19949;-69
2021/11/08 14:55:55;;;;;;;;;;;15.40;46.30;;;;;;6277267;22;19903;-69
2021/11/08 14:58:21;;;;;;;;;;;15.40;47.00;;;;;;6277245;22;19982;-69
2021/11/08 15:00:47;;;;;;;;;;;15.30;46.30;;;;;;6275626;22;19899;-69
2021/11/08 15:03:14;;;;;;;;;;;15.30;46.40;;;;;;6276704;22;19922;-69
2021/11/08 15:05:41;;;;;;;;;;;15.30;46.60;;;;;;6276701;22;19906;-69
2021/11/08 15:08:09;;;;;;;;;;;15.30;46.30;;;;;;6277221;22;20312;-69
2021/11/08 15:10:37;;;;;;;;;;;15.30;46.30;;;;;;6277100;22;20227;-68
2021/11/08 15:13:04;;;;;;;;;;;15.20;46.30;;;;;;6276880;22;19985;-69
2021/11/08 15:15:29;;;;;;;;;;;15.20;46.40;;;;;;6277224;22;19925;-68
2021/11/08 15:17:58;;;;;;;;;;;15.20;46.20;;;;;;6276936;22;19899;-68
2021/11/08 15:20:25;;;;;;;;;;;15.10;46.30;;;;;;6276902;22;20211;-69
2021/11/08 15:22:53;;;;;;;;;;;15.00;46.30;;;;;;6276917;22;19903;-68
2021/11/08 15:25:30;;;;;;;;;;;15.00;46.20;;;;;;6276846;22;19973;-68
2021/11/08 15:28:00;;;;;;;;;;;15.00;46.20;;;;;;6276409;22;19973;-68
2021/11/08 15:30:29;;;;;;;;;;;14.90;46.10;;;;;;6276896;22;19906;-68
2021/11/08 15:33:04;;;;;;;;;;;14.80;46.00;;;;;;6276844;22;20206;-68
2021/11/08 15:35:35;;;;;;;;;;;14.80;46.70;;;;;;6276469;22;20346;-68
2021/11/08 15:38:01;;;;;;;;;;;14.70;46.20;;;;;;6276727;22;19949;-68
2021/11/08 15:40:27;;;;;;;;;;;14.60;46.30;;;;;;6277143;22;19980;-68
2021/11/08 15:42:52;;;;;;;;;;;14.50;46.20;;;;;;6277257;22;19899;-69
2021/11/08 15:45:18;;;;;;;;;;;14.40;46.20;;;;;;6276694;22;19907;-68
2021/11/08 15:47:43;;;;;;;;;;;14.30;46.30;;;;;;6276807;22;20334;-69
2021/11/08 15:50:09;;;;;;;;;;;14.20;46.40;;;;;;6276518;22;19926;-69
2021/11/08 15:52:37;;;;;;;;;;;14.10;46.40;;;;;;6277001;22;19899;-68
2021/11/08 15:55:03;;;;;;;;;;;14.10;46.60;;;;;;6276664;22;19899;-69
2021/11/08 15:57:29;;;;;;;;;;;14.00;46.70;;;;;;6276489;22;19899;-69
2021/11/08 15:59:55;;;;;;;;;;;13.90;46.70;;;;;;6276279;22;19907;-69